createdAt,value
2022-11-24T00:01:59.106Z,66.10
2022-11-24T00:04:28.493Z,66.53
2022-11-24T00:06:57.534Z,66.30
2022-11-24T00:09:26.954Z,66.54
2022-11-24T00:11:55.996Z,66.11
2022-11-24T00:14:25.402Z,66.20
2022-11-24T00:16:55.872Z,66.24
2022-11-24T00:19:25.337Z,66.29
2022-11-24T00:21:54.378Z,66.27
2022-11-24T00:24:23.795Z,66.12
2022-11-24T00:26:52.837Z,66.15
2022-11-24T00:29:22.246Z,66.34
2022-11-24T00:31:51.248Z,66.46
2022-11-24T00:34:22.087Z,66.37
2022-11-24T00:36:51.150Z,66.15
2022-11-24T00:39:20.553Z,66.47
2022-11-24T00:41:49.598Z,66.16
2022-11-24T00:44:19.029Z,66.50
2022-11-24T00:46:48.265Z,66.57
2022-11-24T00:49:17.769Z,66.34
2022-11-24T00:51:48.242Z,66.62
2022-11-24T00:54:18.363Z,66.35
2022-11-24T00:56:55.816Z,66.46
2022-11-24T00:59:33.015Z,66.48
2022-11-24T01:02:02.097Z,66.19
2022-11-24T01:04:31.861Z,66.41
2022-11-24T01:07:02.538Z,66.47
2022-11-24T01:09:36.137Z,66.33
2022-11-24T01:12:09.063Z,66.36
2022-11-24T01:14:38.552Z,66.04
2022-11-24T01:17:07.615Z,66.29
2022-11-24T01:19:36.968Z,66.35
2022-11-24T01:22:07.410Z,66.21
2022-11-24T01:24:36.845Z,66.54
2022-11-24T01:27:06.014Z,66.20
2022-11-24T01:29:35.395Z,66.29
2022-11-24T01:32:04.514Z,66.40
2022-11-24T01:34:34.104Z,66.16
2022-11-24T01:37:03.247Z,66.22
2022-11-24T01:39:34.123Z,66.29
2022-11-24T01:42:03.220Z,66.31
2022-11-24T01:44:33.088Z,66.30
2022-11-24T01:47:02.408Z,66.17
2022-11-24T01:49:35.852Z,66.33
2022-11-24T01:52:07.026Z,66.25
2022-11-24T01:54:38.523Z,66.37
2022-11-24T01:57:08.599Z,66.08
2022-11-24T01:59:38.119Z,66.45
2022-11-24T02:02:07.270Z,66.43
2022-11-24T02:04:36.931Z,66.49
2022-11-24T02:07:16.356Z,66.20
2022-11-24T02:10:00.636Z,66.33
2022-11-24T02:12:53.666Z,66.23
2022-11-24T02:15:25.790Z,66.24
2022-11-24T02:17:54.820Z,66.27
2022-11-24T02:20:24.310Z,66.50
2022-11-24T02:22:55.607Z,66.18
2022-11-24T02:25:28.888Z,66.36
2022-11-24T02:27:59.583Z,66.10
2022-11-24T02:30:29.147Z,66.25
2022-11-24T02:32:58.187Z,66.11
2022-11-24T02:35:27.667Z,66.36
2022-11-24T02:37:56.822Z,66.06
2022-11-24T02:40:27.023Z,66.26
2022-11-24T02:42:56.497Z,66.20
2022-11-24T02:45:27.335Z,66.18
2022-11-24T02:47:56.387Z,66.23
2022-11-24T02:50:25.851Z,66.59
2022-11-24T02:52:54.950Z,66.39
2022-11-24T02:55:25.002Z,66.49
2022-11-24T02:57:54.036Z,66.23
2022-11-24T03:00:23.537Z,66.09
2022-11-24T03:02:54.074Z,65.84
2022-11-24T03:05:23.746Z,66.18
2022-11-24T03:07:52.846Z,65.99
2022-11-24T03:10:22.210Z,66.13
2022-11-24T03:12:51.315Z,66.14
2022-11-24T03:15:20.630Z,66.09
2022-11-24T03:17:49.713Z,66.43
2022-11-24T03:20:20.721Z,66.19
2022-11-24T03:22:49.883Z,66.04
2022-11-24T03:25:19.352Z,66.08
2022-11-24T03:27:48.457Z,66.18
2022-11-24T03:30:18.112Z,66.25
2022-11-24T03:32:47.202Z,66.37
2022-11-24T03:35:16.606Z,66.07
2022-11-24T03:37:47.052Z,66.38
2022-11-24T03:40:18.068Z,66.06
2022-11-24T03:42:47.220Z,66.20
2022-11-24T03:45:44.375Z,66.16
2022-11-24T03:48:06.020Z,66.34
2022-11-24T03:50:35.455Z,66.30
2022-11-24T03:53:05.859Z,66.27
2022-11-24T03:55:35.405Z,66.48
2022-11-24T03:58:04.463Z,66.03
2022-11-24T04:00:33.823Z,66.22
2022-11-24T04:03:02.995Z,66.53
2022-11-24T04:05:33.358Z,66.08
2022-11-24T04:08:03.820Z,66.22
2022-11-24T04:10:37.010Z,66.47
2022-11-24T04:13:05.450Z,66.01
2022-11-24T04:15:34.784Z,66.04
2022-11-24T04:18:03.858Z,66.12
2022-11-24T04:20:33.414Z,66.50
2022-11-24T04:23:02.524Z,66.24
2022-11-24T04:25:31.937Z,66.08
2022-11-24T04:28:02.550Z,66.06
2022-11-24T04:30:31.873Z,66.02
2022-11-24T04:33:00.967Z,66.05
2022-11-24T04:35:30.606Z,66.57
2022-11-24T04:38:03.219Z,66.10
2022-11-24T04:40:32.611Z,65.87
2022-11-24T04:43:03.121Z,66.16
2022-11-24T04:45:32.448Z,66.15
2022-11-24T04:48:01.555Z,66.30
2022-11-24T04:50:31.063Z,66.14
2022-11-24T04:53:00.189Z,66.20
2022-11-24T04:55:29.551Z,66.01
2022-11-24T04:57:58.590Z,66.37
2022-11-24T05:00:29.379Z,65.96
2022-11-24T05:02:58.695Z,66.44
2022-11-24T05:05:28.110Z,66.55
2022-11-24T05:07:57.346Z,66.38
2022-11-24T05:10:38.915Z,66.53
2022-11-24T05:13:08.443Z,66.29
2022-11-24T05:15:39.922Z,66.40
2022-11-24T05:18:09.559Z,66.11
2022-11-24T05:20:39.018Z,66.42
2022-11-24T05:23:08.578Z,66.42
2022-11-24T05:25:38.137Z,66.20
2022-11-24T05:28:08.917Z,66.06
2022-11-24T05:30:40.272Z,66.17
2022-11-24T05:33:10.666Z,66.21
2022-11-24T05:35:40.133Z,66.48
2022-11-24T05:38:09.371Z,66.22
2022-11-24T05:40:39.008Z,66.03
2022-11-24T05:43:11.467Z,66.07
2022-11-24T05:45:42.330Z,66.11
2022-11-24T05:48:11.890Z,66.25
2022-11-24T05:50:41.352Z,66.37
2022-11-24T05:53:11.015Z,66.07
2022-11-24T05:55:40.550Z,65.97
2022-11-24T05:58:09.999Z,66.28
2022-11-24T06:00:39.412Z,66.30
2022-11-24T06:03:10.041Z,65.98
2022-11-24T06:05:39.829Z,66.26
2022-11-24T06:08:08.870Z,66.42
2022-11-24T06:10:38.348Z,66.30
2022-11-24T06:13:07.999Z,66.02
2022-11-24T06:15:37.956Z,65.89
2022-11-24T06:18:07.231Z,66.17
2022-11-24T06:20:38.152Z,66.41
2022-11-24T06:23:07.186Z,66.30
2022-11-24T06:25:36.634Z,66.11
2022-11-24T06:28:06.929Z,66.40
2022-11-24T06:30:36.289Z,66.21
2022-11-24T06:33:05.338Z,66.27
2022-11-24T06:35:34.824Z,66.04
2022-11-24T06:38:05.355Z,66.17
2022-11-24T06:40:34.926Z,66.17
2022-11-24T06:43:04.068Z,66.25
2022-11-24T06:45:33.691Z,66.30
2022-11-24T06:48:02.805Z,66.25
2022-11-24T06:50:33.883Z,66.09
2022-11-24T06:53:03.115Z,65.98
2022-11-24T06:55:34.061Z,66.35
2022-11-24T06:58:03.141Z,66.20
2022-11-24T07:00:33.015Z,66.04
2022-11-24T07:03:02.337Z,65.98
2022-11-24T07:05:32.279Z,66.22
2022-11-24T07:08:01.637Z,66.14
2022-11-24T07:10:31.078Z,66.04
2022-11-24T07:13:03.909Z,66.30
2022-11-24T07:15:33.336Z,66.24
2022-11-24T07:18:02.345Z,66.30
2022-11-24T07:20:31.785Z,66.51
2022-11-24T07:23:00.808Z,66.08
2022-11-24T07:25:30.190Z,65.91
2022-11-24T07:27:59.267Z,65.98
2022-11-24T07:30:30.094Z,66.37
2022-11-24T07:33:02.266Z,65.96
2022-11-24T07:35:31.811Z,66.41
2022-11-24T07:38:00.940Z,66.00
2022-11-24T07:40:30.450Z,66.26
2022-11-24T07:43:01.388Z,66.18
2022-11-24T07:45:32.298Z,65.96
2022-11-24T07:48:01.454Z,66.27
2022-11-24T07:50:31.022Z,66.33
2022-11-24T07:53:02.316Z,66.15
2022-11-24T07:55:31.700Z,66.27
2022-11-24T07:58:01.271Z,65.99
2022-11-24T08:00:32.357Z,66.02
2022-11-24T08:03:01.433Z,65.95
2022-11-24T08:05:31.040Z,65.82
2022-11-24T08:08:01.106Z,66.17
2022-11-24T08:10:30.576Z,66.03
2022-11-24T08:13:01.226Z,66.25
2022-11-24T08:15:32.187Z,65.93
2022-11-24T08:18:02.336Z,66.07
2022-11-24T08:20:31.820Z,65.93
2022-11-24T08:23:01.100Z,66.13
2022-11-24T08:25:32.667Z,66.21
2022-11-24T08:28:02.176Z,66.06
2022-11-24T08:30:33.145Z,66.31
2022-11-24T08:33:02.417Z,66.18
2022-11-24T08:35:31.870Z,66.47
2022-11-24T08:38:04.773Z,66.25
2022-11-24T08:40:34.628Z,66.31
2022-11-24T08:43:03.902Z,66.21
2022-11-24T08:45:39.867Z,66.39
2022-11-24T08:48:10.697Z,66.35
2022-11-24T08:50:40.306Z,66.31
2022-11-24T08:53:09.331Z,66.34
2022-11-24T08:55:38.786Z,66.16
2022-11-24T08:58:07.842Z,66.15
2022-11-24T09:00:38.811Z,66.48
2022-11-24T09:03:07.901Z,66.02
2022-11-24T09:05:51.878Z,66.33
2022-11-24T09:08:22.020Z,65.98
2022-11-24T09:10:51.640Z,65.93
2022-11-24T09:13:43.517Z,66.21
2022-11-24T09:16:14.955Z,66.06
2022-11-24T09:18:44.043Z,66.20
2022-11-24T09:21:13.812Z,66.37
2022-11-24T09:23:43.054Z,66.38
2022-11-24T09:26:13.320Z,66.27
2022-11-24T09:28:42.572Z,66.33
2022-11-24T09:31:12.964Z,66.14
2022-11-24T09:33:46.849Z,66.56
2022-11-24T09:36:16.370Z,66.23
2022-11-24T09:38:45.408Z,65.99
2022-11-24T09:41:20.509Z,66.22
2022-11-24T09:43:50.542Z,66.49
2022-11-24T09:46:20.444Z,66.26
2022-11-24T09:48:52.494Z,66.45
2022-11-24T09:51:25.098Z,66.29
2022-11-24T09:54:03.031Z,66.11
2022-11-24T09:56:33.459Z,66.07
2022-11-24T09:59:03.922Z,66.40
2022-11-24T10:01:33.937Z,66.27
2022-11-24T10:04:06.566Z,66.43
2022-11-24T10:06:38.907Z,66.35
2022-11-24T10:09:13.079Z,66.38
2022-11-24T10:11:44.800Z,66.29
2022-11-24T10:14:20.625Z,66.44
2022-11-24T10:16:51.512Z,66.51
2022-11-24T10:19:33.894Z,66.58
2022-11-24T10:22:10.158Z,66.59
2022-11-24T10:24:52.808Z,66.40
2022-11-24T10:27:23.632Z,66.55
2022-11-24T10:29:53.072Z,66.27
2022-11-24T10:32:23.636Z,66.60
2022-11-24T10:34:54.074Z,66.44
2022-11-24T10:37:24.145Z,66.18
2022-11-24T10:39:59.887Z,66.29
2022-11-24T10:42:30.126Z,66.20
2022-11-24T10:45:02.467Z,66.38
2022-11-24T10:47:32.496Z,66.58
2022-11-24T10:50:03.558Z,66.26
2022-11-24T10:52:33.922Z,66.30
2022-11-24T10:55:03.730Z,66.53
2022-11-24T10:57:33.723Z,66.23
2022-11-24T11:00:03.691Z,66.22
2022-11-24T11:02:34.885Z,66.21
2022-11-24T11:05:22.437Z,66.49
2022-11-24T11:07:53.303Z,66.34
2022-11-24T11:10:23.396Z,66.64
2022-11-24T11:12:52.780Z,66.37
2022-11-24T11:15:23.212Z,66.72
2022-11-24T11:17:57.507Z,66.43
2022-11-24T11:20:29.056Z,66.47
2022-11-24T11:23:00.369Z,66.34
2022-11-24T11:25:30.882Z,66.36
2022-11-24T11:28:20.872Z,66.30
2022-11-24T11:31:16.654Z,66.50
2022-11-24T11:34:03.753Z,66.11
2022-11-24T11:36:33.694Z,66.17
2022-11-24T11:39:05.251Z,66.32
2022-11-24T11:41:35.208Z,66.38
2022-11-24T11:44:12.296Z,66.13
2022-11-24T11:46:41.431Z,66.38
2022-11-24T11:49:10.839Z,66.33
2022-11-24T11:51:54.733Z,66.69
2022-11-24T11:54:30.143Z,66.28
2022-11-24T11:57:02.278Z,66.47
2022-11-24T11:59:35.853Z,66.48
2022-11-24T12:02:25.667Z,66.46
2022-11-24T12:04:55.498Z,66.63
2022-11-24T12:07:31.145Z,66.21
2022-11-24T12:10:03.477Z,66.39
2022-11-24T12:12:37.972Z,66.52
2022-11-24T12:15:11.160Z,66.14
2022-11-24T12:17:42.142Z,66.10
2022-11-24T12:20:25.163Z,66.28
2022-11-24T12:22:55.537Z,66.33
2022-11-24T12:25:27.758Z,66.14
2022-11-24T12:28:00.844Z,66.50
2022-11-24T12:30:32.251Z,66.38
2022-11-24T12:33:10.018Z,66.41
2022-11-24T12:35:41.039Z,66.13
2022-11-24T12:38:17.389Z,66.21
2022-11-24T12:41:18.135Z,66.35
2022-11-24T12:43:45.825Z,66.37
2022-11-24T12:46:17.587Z,66.06
2022-11-24T12:48:50.244Z,66.17
2022-11-24T12:51:29.373Z,66.34
2022-11-24T12:53:58.949Z,66.16
2022-11-24T12:56:36.889Z,66.18
2022-11-24T12:59:11.797Z,66.29
2022-11-24T13:01:46.289Z,66.51
2022-11-24T13:04:17.083Z,66.01
2022-11-24T13:06:49.834Z,66.32
2022-11-24T13:09:19.694Z,66.09
2022-11-24T13:11:51.157Z,66.07
2022-11-24T13:14:20.998Z,66.42
2022-11-24T13:17:13.462Z,66.21
2022-11-24T13:19:40.989Z,66.34
2022-11-24T13:22:23.965Z,66.39
2022-11-24T13:25:06.343Z,66.27
2022-11-24T13:27:44.813Z,66.26
2022-11-24T13:30:32.350Z,66.41
2022-11-24T13:33:02.932Z,66.40
2022-11-24T13:35:32.146Z,66.40
2022-11-24T13:38:02.047Z,66.37
2022-11-24T13:40:38.507Z,66.61
2022-11-24T13:43:22.554Z,66.68
2022-11-24T13:45:52.509Z,66.06
2022-11-24T13:48:41.068Z,66.22
2022-11-24T13:51:14.635Z,66.14
2022-11-24T13:53:44.725Z,65.99
2022-11-24T13:56:26.224Z,66.22
2022-11-24T13:58:59.090Z,66.47
2022-11-24T14:01:29.609Z,66.39
2022-11-24T14:07:07.320Z,65.92
2022-11-24T14:09:38.608Z,66.41
2022-11-24T14:12:09.051Z,66.26
2022-11-24T14:14:39.948Z,66.19
2022-11-24T14:17:15.331Z,66.24
2022-11-24T14:19:45.405Z,66.46
2022-11-24T14:22:15.857Z,66.20
2022-11-24T14:24:46.899Z,66.32
2022-11-24T14:27:17.070Z,66.05
2022-11-24T14:30:00.211Z,66.34
2022-11-24T14:32:29.627Z,66.38
2022-11-24T14:34:59.185Z,66.15
2022-11-24T14:37:28.450Z,66.02
2022-11-24T14:39:57.827Z,66.28
2022-11-24T14:42:27.427Z,66.34
2022-11-24T14:44:58.758Z,66.04
2022-11-24T14:47:31.839Z,66.15
2022-11-24T14:50:09.700Z,66.36
2022-11-24T14:52:43.093Z,66.25
2022-11-24T14:55:23.809Z,66.32
2022-11-24T14:57:52.912Z,66.12
2022-11-24T15:00:27.310Z,66.10
2022-11-24T15:03:09.017Z,66.13
2022-11-24T15:06:00.617Z,66.11
2022-11-24T15:08:29.949Z,66.14
2022-11-24T15:10:59.896Z,66.37
2022-11-24T15:13:31.658Z,66.01
2022-11-24T15:16:03.542Z,66.18
2022-11-24T15:18:41.147Z,66.20
2022-11-24T15:21:15.616Z,66.13
2022-11-24T15:27:49.505Z,65.95
2022-11-24T15:30:19.198Z,66.13
2022-11-24T15:33:09.499Z,66.47
2022-11-24T15:39:13.478Z,66.21
2022-11-24T15:41:43.411Z,66.12
2022-11-24T15:44:12.457Z,66.12
2022-11-24T15:46:41.959Z,66.30
2022-11-24T15:49:11.114Z,66.34
2022-11-24T15:51:40.543Z,66.19
2022-11-24T15:54:10.458Z,66.29
2022-11-24T15:56:42.102Z,65.98
2022-11-24T15:59:15.506Z,66.04
2022-11-24T16:01:50.031Z,66.25
2022-11-24T16:04:19.418Z,65.93
2022-11-24T16:06:49.001Z,66.16
2022-11-24T16:09:18.594Z,66.19
2022-11-24T16:11:49.531Z,66.09
2022-11-24T16:14:27.913Z,65.89
2022-11-24T16:16:57.810Z,66.13
2022-11-24T16:19:26.908Z,66.22
2022-11-24T16:21:56.316Z,66.24
2022-11-24T16:24:25.373Z,66.10
2022-11-24T16:26:56.153Z,66.10
2022-11-24T16:29:25.165Z,66.20
2022-11-24T16:31:54.648Z,66.21
2022-11-24T16:34:23.912Z,66.02
2022-11-24T16:36:53.394Z,66.15
2022-11-24T16:39:22.480Z,66.18
2022-11-24T16:41:51.985Z,66.32
2022-11-24T16:44:22.523Z,66.11
2022-11-24T16:46:52.069Z,66.18
2022-11-24T16:49:21.221Z,66.10
2022-11-24T16:51:50.705Z,66.26
2022-11-24T16:54:19.975Z,65.88
2022-11-24T16:56:49.396Z,66.06
2022-11-24T16:59:18.513Z,66.32
2022-11-24T17:01:50.812Z,66.00
2022-11-24T17:04:19.985Z,66.17
2022-11-24T17:06:49.319Z,66.31
2022-11-24T17:09:19.032Z,66.35
2022-11-24T17:11:48.512Z,66.31
2022-11-24T17:14:17.569Z,66.30
2022-11-24T17:16:47.045Z,66.31
2022-11-24T17:19:17.562Z,66.22
2022-11-24T17:21:47.104Z,66.26
2022-11-24T17:24:17.877Z,66.19
2022-11-24T17:26:51.856Z,66.43
2022-11-24T17:29:21.030Z,66.00
2022-11-24T17:31:50.504Z,66.38
2022-11-24T17:34:21.128Z,66.11
2022-11-24T17:36:50.522Z,66.23
2022-11-24T17:39:24.532Z,66.31
2022-11-24T17:41:54.557Z,66.33
2022-11-24T17:44:23.796Z,66.42
2022-11-24T17:46:53.164Z,66.36
2022-11-24T17:49:23.611Z,66.34
2022-11-24T17:51:53.016Z,66.34
2022-11-24T17:54:45.234Z,66.30
2022-11-24T17:57:11.422Z,66.49
2022-11-24T17:59:40.580Z,66.40
2022-11-24T18:02:10.376Z,66.42
2022-11-24T18:04:40.996Z,66.35
2022-11-24T18:07:10.499Z,66.46
2022-11-24T18:09:39.691Z,66.28
2022-11-24T18:12:09.472Z,66.44
2022-11-24T18:14:38.619Z,66.72
2022-11-24T18:17:39.845Z,66.37
2022-11-24T18:20:11.057Z,66.29
2022-11-24T18:23:04.706Z,66.70
2022-11-24T18:25:31.144Z,66.69
2022-11-24T18:28:00.544Z,66.54
2022-11-24T18:30:29.665Z,66.33
2022-11-24T18:32:59.659Z,66.84
2022-11-24T18:35:36.275Z,66.41
2022-11-24T18:38:05.751Z,66.38
2022-11-24T18:40:34.906Z,66.75
2022-11-24T18:43:04.678Z,66.40
2022-11-24T18:45:33.789Z,66.49
2022-11-24T18:48:03.352Z,66.67
2022-11-24T18:50:33.353Z,66.90
2022-11-24T18:53:04.267Z,66.81
2022-11-24T18:55:33.423Z,66.60
2022-11-24T18:58:03.056Z,66.48
2022-11-24T19:00:33.636Z,66.56
2022-11-24T19:03:03.341Z,66.93
2022-11-24T19:05:32.630Z,66.50
2022-11-24T19:08:03.570Z,66.51
2022-11-24T19:10:32.698Z,66.62
2022-11-24T19:13:02.223Z,66.69
2022-11-24T19:15:33.145Z,66.51
2022-11-24T19:18:02.798Z,66.77
2022-11-24T19:20:31.891Z,66.99
2022-11-24T19:23:01.335Z,66.95
2022-11-24T19:25:32.091Z,67.11
2022-11-24T19:28:01.631Z,67.17
2022-11-24T19:30:33.069Z,66.87
2022-11-24T19:33:02.536Z,67.01
2022-11-24T19:35:31.652Z,67.12
2022-11-24T19:38:01.091Z,67.11
2022-11-24T19:40:34.430Z,67.03
2022-11-24T19:43:11.304Z,67.12
2022-11-24T19:45:44.575Z,67.36
2022-11-24T19:48:14.234Z,66.90
2022-11-24T19:50:47.203Z,66.94
2022-11-24T19:53:32.057Z,67.05
2022-11-24T20:07:23.516Z,67.32
2022-11-24T20:09:52.977Z,67.45
2022-11-24T20:12:22.092Z,67.57
2022-11-24T20:14:51.596Z,67.64
2022-11-24T20:17:20.677Z,67.66
2022-11-24T20:19:50.138Z,67.62
2022-11-24T20:22:19.176Z,67.29
2022-11-24T20:24:50.221Z,67.61
2022-11-24T20:27:19.326Z,67.42
2022-11-24T20:29:48.821Z,67.71
2022-11-24T20:32:20.416Z,67.71
2022-11-24T20:34:49.888Z,67.92
2022-11-24T20:37:19.044Z,67.87
2022-11-24T20:39:48.720Z,68.01
2022-11-24T20:42:19.223Z,67.85
2022-11-24T20:44:48.790Z,68.28
2022-11-24T20:47:17.875Z,68.02
2022-11-24T20:49:47.506Z,67.97
2022-11-24T20:52:16.623Z,68.00
2022-11-24T20:54:46.998Z,68.21
2022-11-24T20:57:16.082Z,68.16
2022-11-24T20:59:46.942Z,68.03
2022-11-24T21:02:16.111Z,67.98
2022-11-24T21:04:45.717Z,68.17
2022-11-24T21:07:15.986Z,68.17
2022-11-24T21:09:45.575Z,67.93
2022-11-24T21:12:14.794Z,68.35
2022-11-24T21:14:44.308Z,67.95
2022-11-24T21:17:15.134Z,67.84
2022-11-24T21:19:44.712Z,68.32
2022-11-24T21:22:13.890Z,68.45
2022-11-24T21:24:43.461Z,68.14
2022-11-24T21:27:12.644Z,68.40
2022-11-24T21:29:42.158Z,68.51
2022-11-24T21:32:11.309Z,68.59
2022-11-24T21:34:42.238Z,68.40
2022-11-24T21:37:11.281Z,68.29
2022-11-24T21:39:44.689Z,68.27
2022-11-24T21:42:13.982Z,68.46
2022-11-24T21:44:43.583Z,68.25
2022-11-24T21:47:12.893Z,68.04
2022-11-24T21:49:44.302Z,68.31
2022-11-24T21:52:13.752Z,68.42
2022-11-24T21:54:43.305Z,68.21
2022-11-24T21:57:12.466Z,68.38
2022-11-24T21:59:41.985Z,68.19
2022-11-24T22:02:13.119Z,68.12
2022-11-24T22:04:44.584Z,68.15
2022-11-24T22:07:13.807Z,68.28
2022-11-24T22:09:43.397Z,68.07
2022-11-24T22:12:12.466Z,68.05
2022-11-24T22:14:42.315Z,68.21
2022-11-24T22:17:13.476Z,67.98
2022-11-24T22:19:44.413Z,68.12
2022-11-24T22:22:13.529Z,68.19
2022-11-24T22:24:43.099Z,68.32
2022-11-24T22:27:12.179Z,68.15
2022-11-24T22:44:55.085Z,67.96
2022-11-24T22:47:24.651Z,67.94
2022-11-24T22:49:53.742Z,68.06
2022-11-24T22:52:23.271Z,68.09
2022-11-24T22:54:52.455Z,68.09
2022-11-24T22:57:21.856Z,68.28
2022-11-24T22:59:50.995Z,68.12
2022-11-24T23:02:22.464Z,67.90
2022-11-24T23:04:51.507Z,67.97
2022-11-24T23:07:20.848Z,68.05
2022-11-24T23:09:49.957Z,67.74
2022-11-24T23:12:19.470Z,68.01
2022-11-24T23:15:09.117Z,67.58
2022-11-24T23:17:48.039Z,67.98
2022-11-24T23:20:17.131Z,67.88
2022-11-24T23:22:46.763Z,67.77
2022-11-24T23:25:15.799Z,67.87
2022-11-24T23:27:46.741Z,67.99
2022-11-24T23:30:15.860Z,67.88
2022-11-24T23:32:46.699Z,67.92
2022-11-24T23:35:15.769Z,67.67
2022-11-24T23:38:06.571Z,67.86
2022-11-24T23:40:34.210Z,67.91
2022-11-24T23:43:13.509Z,67.77
2022-11-24T23:45:49.763Z,67.91
2022-11-24T23:48:20.724Z,67.79
2022-11-24T23:50:49.949Z,67.87
2022-11-24T23:53:19.230Z,67.69
2022-11-24T23:55:53.396Z,67.74
2022-11-24T23:58:22.852Z,67.70
